sensor_id;sensor_type;location;lat;lon;timestamp;temperature;humidity
11536;DHT22;5824;49.336;8.652;2022-07-05T00:00:18;19.70;1.00
11536;DHT22;5824;49.336;8.652;2022-07-05T00:02:44;19.70;1.00
11536;DHT22;5824;49.336;8.652;2022-07-05T00:05:10;19.60;1.00
11536;DHT22;5824;49.336;8.652;2022-07-05T00:07:35;19.50;1.00
11536;DHT22;5824;49.336;8.652;2022-07-05T00:10:01;19.40;1.00
11536;DHT22;5824;49.336;8.652;2022-07-05T00:12:30;19.20;1.00
11536;DHT22;5824;49.336;8.652;2022-07-05T00:14:58;19.10;1.00
11536;DHT22;5824;49.336;8.652;2022-07-05T00:17:23;18.90;1.00
11536;DHT22;5824;49.336;8.652;2022-07-05T00:19:49;18.70;1.00
11536;DHT22;5824;49.336;8.652;2022-07-05T00:22:15;18.70;1.00
11536;DHT22;5824;49.336;8.652;2022-07-05T00:24:40;18.70;1.00
11536;DHT22;5824;49.336;8.652;2022-07-05T00:27:06;18.70;1.00
11536;DHT22;5824;49.336;8.652;2022-07-05T00:29:31;18.60;1.00
11536;DHT22;5824;49.336;8.652;2022-07-05T00:31:57;18.70;1.00
11536;DHT22;5824;49.336;8.652;2022-07-05T00:34:23;18.80;1.00
11536;DHT22;5824;49.336;8.652;2022-07-05T00:36:49;18.70;1.00
11536;DHT22;5824;49.336;8.652;2022-07-05T00:39:14;18.80;1.00
11536;DHT22;5824;49.336;8.652;2022-07-05T00:41:40;18.70;1.00
11536;DHT22;5824;49.336;8.652;2022-07-05T00:44:08;18.70;1.00
11536;DHT22;5824;49.336;8.652;2022-07-05T00:46:35;18.70;1.00
11536;DHT22;5824;49.336;8.652;2022-07-05T00:49:02;18.60;1.00
11536;DHT22;5824;49.336;8.652;2022-07-05T00:51:32;18.60;1.00
11536;DHT22;5824;49.336;8.652;2022-07-05T00:53:59;18.50;1.00
11536;DHT22;5824;49.336;8.652;2022-07-05T00:56:25;18.50;1.00
11536;DHT22;5824;49.336;8.652;2022-07-05T00:58:51;18.50;1.00
11536;DHT22;5824;49.336;8.652;2022-07-05T01:01:17;18.30;1.00
11536;DHT22;5824;49.336;8.652;2022-07-05T01:03:43;18.30;1.00
11536;DHT22;5824;49.336;8.652;2022-07-05T01:06:11;17.90;1.00
11536;DHT22;5824;49.336;8.652;2022-07-05T01:08:41;17.90;1.00
11536;DHT22;5824;49.336;8.652;2022-07-05T01:11:08;17.90;1.00
11536;DHT22;5824;49.336;8.652;2022-07-05T01:13:36;18.00;1.00
11536;DHT22;5824;49.336;8.652;2022-07-05T01:16:02;18.10;1.00
11536;DHT22;5824;49.336;8.652;2022-07-05T01:18:28;18.10;1.00
11536;DHT22;5824;49.336;8.652;2022-07-05T01:20:54;18.10;1.00
11536;DHT22;5824;49.336;8.652;2022-07-05T01:23:20;18.10;1.00
11536;DHT22;5824;49.336;8.652;2022-07-05T01:25:47;17.90;1.00
11536;DHT22;5824;49.336;8.652;2022-07-05T01:28:13;17.90;1.00
11536;DHT22;5824;49.336;8.652;2022-07-05T01:30:40;17.80;1.00
11536;DHT22;5824;49.336;8.652;2022-07-05T01:33:07;17.60;1.00
11536;DHT22;5824;49.336;8.652;2022-07-05T01:35:34;17.60;1.00
11536;DHT22;5824;49.336;8.652;2022-07-05T01:38:00;17.50;1.00
11536;DHT22;5824;49.336;8.652;2022-07-05T01:40:25;17.50;1.00
11536;DHT22;5824;49.336;8.652;2022-07-05T01:42:51;17.50;1.00
11536;DHT22;5824;49.336;8.652;2022-07-05T01:45:17;17.50;1.00
11536;DHT22;5824;49.336;8.652;2022-07-05T01:48:04;17.40;1.00
11536;DHT22;5824;49.336;8.652;2022-07-05T01:50:35;17.40;1.00
11536;DHT22;5824;49.336;8.652;2022-07-05T01:53:03;17.50;1.00
11536;DHT22;5824;49.336;8.652;2022-07-05T01:55:29;17.40;1.00
11536;DHT22;5824;49.336;8.652;2022-07-05T01:57:54;17.30;1.00
11536;DHT22;5824;49.336;8.652;2022-07-05T02:00:20;17.40;1.00
11536;DHT22;5824;49.336;8.652;2022-07-05T02:02:46;17.40;1.00
11536;DHT22;5824;49.336;8.652;2022-07-05T02:05:12;17.50;1.00
11536;DHT22;5824;49.336;8.652;2022-07-05T02:07:47;17.50;1.00
11536;DHT22;5824;49.336;8.652;2022-07-05T02:10:13;17.40;1.00
11536;DHT22;5824;49.336;8.652;2022-07-05T02:12:38;17.40;1.00
11536;DHT22;5824;49.336;8.652;2022-07-05T02:15:04;17.30;1.00
11536;DHT22;5824;49.336;8.652;2022-07-05T02:17:30;17.20;1.00
11536;DHT22;5824;49.336;8.652;2022-07-05T02:19:55;17.10;1.00
11536;DHT22;5824;49.336;8.652;2022-07-05T02:22:21;17.10;1.00
11536;DHT22;5824;49.336;8.652;2022-07-05T02:24:46;17.00;1.00
11536;DHT22;5824;49.336;8.652;2022-07-05T02:27:12;17.00;1.00
11536;DHT22;5824;49.336;8.652;2022-07-05T02:29:37;17.00;1.00
11536;DHT22;5824;49.336;8.652;2022-07-05T02:32:03;17.00;1.00
11536;DHT22;5824;49.336;8.652;2022-07-05T02:34:29;16.90;1.00
11536;DHT22;5824;49.336;8.652;2022-07-05T02:36:54;16.90;1.00
11536;DHT22;5824;49.336;8.652;2022-07-05T02:39:20;16.80;1.00
11536;DHT22;5824;49.336;8.652;2022-07-05T02:41:45;16.80;1.00
11536;DHT22;5824;49.336;8.652;2022-07-05T02:44:11;16.90;1.00
11536;DHT22;5824;49.336;8.652;2022-07-05T02:46:36;16.70;1.00
11536;DHT22;5824;49.336;8.652;2022-07-05T02:49:03;16.70;1.00
11536;DHT22;5824;49.336;8.652;2022-07-05T02:51:29;16.60;1.00
11536;DHT22;5824;49.336;8.652;2022-07-05T02:53:54;16.60;1.00
11536;DHT22;5824;49.336;8.652;2022-07-05T02:56:20;16.50;1.00
11536;DHT22;5824;49.336;8.652;2022-07-05T02:58:45;16.40;1.00
11536;DHT22;5824;49.336;8.652;2022-07-05T03:01:11;16.30;1.00
11536;DHT22;5824;49.336;8.652;2022-07-05T03:03:36;16.20;1.00
11536;DHT22;5824;49.336;8.652;2022-07-05T03:06:02;16.10;1.00
11536;DHT22;5824;49.336;8.652;2022-07-05T03:08:27;16.10;1.00
11536;DHT22;5824;49.336;8.652;2022-07-05T03:10:53;16.00;1.00
11536;DHT22;5824;49.336;8.652;2022-07-05T03:13:18;16.00;1.00
11536;DHT22;5824;49.336;8.652;2022-07-05T03:15:44;16.00;1.00
11536;DHT22;5824;49.336;8.652;2022-07-05T03:18:10;15.80;1.00
11536;DHT22;5824;49.336;8.652;2022-07-05T03:20:35;15.80;1.00
11536;DHT22;5824;49.336;8.652;2022-07-05T03:23:01;15.80;1.00
11536;DHT22;5824;49.336;8.652;2022-07-05T03:25:26;15.80;1.00
11536;DHT22;5824;49.336;8.652;2022-07-05T03:27:52;15.80;1.00
11536;DHT22;5824;49.336;8.652;2022-07-05T03:30:18;15.80;1.00
11536;DHT22;5824;49.336;8.652;2022-07-05T03:32:43;15.70;1.00
11536;DHT22;5824;49.336;8.652;2022-07-05T03:35:09;15.70;1.00
11536;DHT22;5824;49.336;8.652;2022-07-05T03:37:35;15.80;1.00
11536;DHT22;5824;49.336;8.652;2022-07-05T03:40:00;15.80;1.00
11536;DHT22;5824;49.336;8.652;2022-07-05T03:42:26;15.80;1.00
11536;DHT22;5824;49.336;8.652;2022-07-05T03:44:51;15.70;1.00
11536;DHT22;5824;49.336;8.652;2022-07-05T03:47:17;15.70;1.00
11536;DHT22;5824;49.336;8.652;2022-07-05T03:49:43;16.10;1.00
11536;DHT22;5824;49.336;8.652;2022-07-05T03:52:08;15.80;1.00
11536;DHT22;5824;49.336;8.652;2022-07-05T03:54:33;15.80;1.00
11536;DHT22;5824;49.336;8.652;2022-07-05T03:56:59;15.80;1.00
11536;DHT22;5824;49.336;8.652;2022-07-05T03:59:24;15.70;1.00
11536;DHT22;5824;49.336;8.652;2022-07-05T04:01:50;15.80;1.00
11536;DHT22;5824;49.336;8.652;2022-07-05T04:04:15;15.80;1.00
11536;DHT22;5824;49.336;8.652;2022-07-05T04:06:41;15.80;1.00
11536;DHT22;5824;49.336;8.652;2022-07-05T04:09:06;15.70;1.00
11536;DHT22;5824;49.336;8.652;2022-07-05T04:11:32;15.80;1.00
11536;DHT22;5824;49.336;8.652;2022-07-05T04:13:58;15.80;1.00
11536;DHT22;5824;49.336;8.652;2022-07-05T04:16:23;15.90;1.00
11536;DHT22;5824;49.336;8.652;2022-07-05T04:18:49;15.90;1.00
11536;DHT22;5824;49.336;8.652;2022-07-05T04:21:14;15.90;1.00
11536;DHT22;5824;49.336;8.652;2022-07-05T04:23:40;16.00;1.00
11536;DHT22;5824;49.336;8.652;2022-07-05T04:26:05;16.10;1.00
11536;DHT22;5824;49.336;8.652;2022-07-05T04:28:31;16.20;1.00
11536;DHT22;5824;49.336;8.652;2022-07-05T04:30:57;16.30;1.00
11536;DHT22;5824;49.336;8.652;2022-07-05T04:33:23;16.40;1.00
11536;DHT22;5824;49.336;8.652;2022-07-05T04:35:49;16.50;1.00
11536;DHT22;5824;49.336;8.652;2022-07-05T04:38:14;16.50;1.00
11536;DHT22;5824;49.336;8.652;2022-07-05T04:40:40;16.60;1.00
11536;DHT22;5824;49.336;8.652;2022-07-05T04:43:06;16.70;1.00
11536;DHT22;5824;49.336;8.652;2022-07-05T04:45:32;16.70;1.00
11536;DHT22;5824;49.336;8.652;2022-07-05T04:47:58;16.70;1.00
11536;DHT22;5824;49.336;8.652;2022-07-05T04:50:24;16.80;1.00
11536;DHT22;5824;49.336;8.652;2022-07-05T04:52:49;16.90;1.00
11536;DHT22;5824;49.336;8.652;2022-07-05T04:55:15;17.00;1.00
11536;DHT22;5824;49.336;8.652;2022-07-05T04:57:41;17.00;1.00
11536;DHT22;5824;49.336;8.652;2022-07-05T05:00:11;17.10;1.00
11536;DHT22;5824;49.336;8.652;2022-07-05T05:02:37;17.20;1.00
11536;DHT22;5824;49.336;8.652;2022-07-05T05:05:03;17.40;1.00
11536;DHT22;5824;49.336;8.652;2022-07-05T05:07:28;17.40;1.00
11536;DHT22;5824;49.336;8.652;2022-07-05T05:09:54;17.50;1.00
11536;DHT22;5824;49.336;8.652;2022-07-05T05:12:20;17.50;1.00
11536;DHT22;5824;49.336;8.652;2022-07-05T05:14:46;17.60;1.00
11536;DHT22;5824;49.336;8.652;2022-07-05T05:17:12;17.60;1.00
11536;DHT22;5824;49.336;8.652;2022-07-05T05:19:37;17.70;1.00
11536;DHT22;5824;49.336;8.652;2022-07-05T05:22:03;17.80;1.00
11536;DHT22;5824;49.336;8.652;2022-07-05T05:24:28;17.90;1.00
11536;DHT22;5824;49.336;8.652;2022-07-05T05:26:54;17.90;1.00
11536;DHT22;5824;49.336;8.652;2022-07-05T05:29:19;18.00;1.00
11536;DHT22;5824;49.336;8.652;2022-07-05T05:31:46;18.00;1.00
11536;DHT22;5824;49.336;8.652;2022-07-05T05:34:12;18.10;1.00
11536;DHT22;5824;49.336;8.652;2022-07-05T05:36:37;18.20;1.00
11536;DHT22;5824;49.336;8.652;2022-07-05T05:39:03;18.40;1.00
11536;DHT22;5824;49.336;8.652;2022-07-05T05:41:29;18.40;1.00
11536;DHT22;5824;49.336;8.652;2022-07-05T05:43:54;18.40;1.00
11536;DHT22;5824;49.336;8.652;2022-07-05T05:46:20;18.60;1.00
11536;DHT22;5824;49.336;8.652;2022-07-05T05:48:46;18.60;1.00
11536;DHT22;5824;49.336;8.652;2022-07-05T05:51:11;18.70;1.00
11536;DHT22;5824;49.336;8.652;2022-07-05T05:53:37;18.90;1.00
11536;DHT22;5824;49.336;8.652;2022-07-05T05:56:02;19.40;1.00
11536;DHT22;5824;49.336;8.652;2022-07-05T05:58:28;19.10;1.00
11536;DHT22;5824;49.336;8.652;2022-07-05T06:00:53;19.10;1.00
11536;DHT22;5824;49.336;8.652;2022-07-05T06:03:24;19.20;1.00
11536;DHT22;5824;49.336;8.652;2022-07-05T06:05:49;19.20;1.00
11536;DHT22;5824;49.336;8.652;2022-07-05T06:08:15;19.20;1.00
11536;DHT22;5824;49.336;8.652;2022-07-05T06:10:41;19.30;1.00
11536;DHT22;5824;49.336;8.652;2022-07-05T06:13:10;19.40;1.00
11536;DHT22;5824;49.336;8.652;2022-07-05T06:15:36;19.50;1.00
11536;DHT22;5824;49.336;8.652;2022-07-05T06:18:02;19.60;1.00
11536;DHT22;5824;49.336;8.652;2022-07-05T06:20:31;19.60;1.00
11536;DHT22;5824;49.336;8.652;2022-07-05T06:22:57;19.70;1.00
11536;DHT22;5824;49.336;8.652;2022-07-05T06:25:23;19.80;1.00
11536;DHT22;5824;49.336;8.652;2022-07-05T06:27:51;19.90;1.00
11536;DHT22;5824;49.336;8.652;2022-07-05T06:30:19;20.00;1.00
11536;DHT22;5824;49.336;8.652;2022-07-05T06:32:45;20.10;1.00
11536;DHT22;5824;49.336;8.652;2022-07-05T06:35:12;20.20;1.00
11536;DHT22;5824;49.336;8.652;2022-07-05T06:37:55;20.20;1.00
11536;DHT22;5824;49.336;8.652;2022-07-05T06:40:29;20.30;1.00
11536;DHT22;5824;49.336;8.652;2022-07-05T06:42:56;20.30;1.00
11536;DHT22;5824;49.336;8.652;2022-07-05T06:45:23;20.40;1.00
11536;DHT22;5824;49.336;8.652;2022-07-05T06:48:09;20.40;1.00
11536;DHT22;5824;49.336;8.652;2022-07-05T06:50:37;20.50;1.00
11536;DHT22;5824;49.336;8.652;2022-07-05T06:53:03;20.60;1.00
11536;DHT22;5824;49.336;8.652;2022-07-05T06:55:29;20.80;1.00
11536;DHT22;5824;49.336;8.652;2022-07-05T06:57:59;20.90;1.00
11536;DHT22;5824;49.336;8.652;2022-07-05T07:00:26;21.00;1.00
11536;DHT22;5824;49.336;8.652;2022-07-05T07:02:52;21.10;1.00
11536;DHT22;5824;49.336;8.652;2022-07-05T07:05:18;21.20;1.00
11536;DHT22;5824;49.336;8.652;2022-07-05T07:07:43;21.30;1.00
11536;DHT22;5824;49.336;8.652;2022-07-05T07:10:27;21.60;1.00
11536;DHT22;5824;49.336;8.652;2022-07-05T07:12:53;21.80;1.00
11536;DHT22;5824;49.336;8.652;2022-07-05T07:15:18;21.90;1.00
11536;DHT22;5824;49.336;8.652;2022-07-05T07:17:44;22.10;1.00
11536;DHT22;5824;49.336;8.652;2022-07-05T07:20:10;22.20;1.00
11536;DHT22;5824;49.336;8.652;2022-07-05T07:22:35;22.20;1.00
11536;DHT22;5824;49.336;8.652;2022-07-05T07:25:01;22.50;1.00
11536;DHT22;5824;49.336;8.652;2022-07-05T07:27:26;22.50;1.00
11536;DHT22;5824;49.336;8.652;2022-07-05T07:29:52;22.70;1.00
11536;DHT22;5824;49.336;8.652;2022-07-05T07:32:17;22.80;1.00
11536;DHT22;5824;49.336;8.652;2022-07-05T07:34:44;22.90;1.00
11536;DHT22;5824;49.336;8.652;2022-07-05T07:37:10;23.00;1.00
11536;DHT22;5824;49.336;8.652;2022-07-05T07:39:39;23.20;1.00
11536;DHT22;5824;49.336;8.652;2022-07-05T07:42:05;23.40;1.00
11536;DHT22;5824;49.336;8.652;2022-07-05T07:44:31;23.70;1.00
11536;DHT22;5824;49.336;8.652;2022-07-05T07:46:56;23.90;1.00
11536;DHT22;5824;49.336;8.652;2022-07-05T07:49:22;24.20;1.00
11536;DHT22;5824;49.336;8.652;2022-07-05T07:51:47;24.00;1.00
11536;DHT22;5824;49.336;8.652;2022-07-05T07:54:13;24.10;1.00
11536;DHT22;5824;49.336;8.652;2022-07-05T07:56:39;24.40;1.00
11536;DHT22;5824;49.336;8.652;2022-07-05T07:59:04;24.70;1.00
11536;DHT22;5824;49.336;8.652;2022-07-05T08:01:30;24.90;1.00
11536;DHT22;5824;49.336;8.652;2022-07-05T08:03:56;25.00;1.00
11536;DHT22;5824;49.336;8.652;2022-07-05T08:06:22;25.20;1.00
11536;DHT22;5824;49.336;8.652;2022-07-05T08:08:47;25.40;1.00
11536;DHT22;5824;49.336;8.652;2022-07-05T08:11:14;27.10;1.00
11536;DHT22;5824;49.336;8.652;2022-07-05T08:13:40;25.50;1.00
11536;DHT22;5824;49.336;8.652;2022-07-05T08:16:07;25.70;1.00
11536;DHT22;5824;49.336;8.652;2022-07-05T08:18:33;25.90;1.00
11536;DHT22;5824;49.336;8.652;2022-07-05T08:21:17;26.10;1.00
11536;DHT22;5824;49.336;8.652;2022-07-05T08:23:59;26.40;1.00
11536;DHT22;5824;49.336;8.652;2022-07-05T08:26:25;26.40;1.00
11536;DHT22;5824;49.336;8.652;2022-07-05T08:28:51;26.50;1.00
11536;DHT22;5824;49.336;8.652;2022-07-05T08:31:17;26.80;1.00
11536;DHT22;5824;49.336;8.652;2022-07-05T08:33:42;27.00;1.00
11536;DHT22;5824;49.336;8.652;2022-07-05T08:36:08;27.00;1.00
11536;DHT22;5824;49.336;8.652;2022-07-05T08:38:33;27.00;1.00
11536;DHT22;5824;49.336;8.652;2022-07-05T08:40:59;26.90;1.00
11536;DHT22;5824;49.336;8.652;2022-07-05T08:43:27;27.00;1.00
11536;DHT22;5824;49.336;8.652;2022-07-05T08:45:54;27.10;1.00
11536;DHT22;5824;49.336;8.652;2022-07-05T08:48:21;27.30;1.00
11536;DHT22;5824;49.336;8.652;2022-07-05T08:50:47;27.60;1.00
11536;DHT22;5824;49.336;8.652;2022-07-05T08:53:15;28.00;1.00
11536;DHT22;5824;49.336;8.652;2022-07-05T08:55:41;27.90;1.00
11536;DHT22;5824;49.336;8.652;2022-07-05T08:58:07;28.00;1.00
11536;DHT22;5824;49.336;8.652;2022-07-05T09:00:33;28.30;1.00
11536;DHT22;5824;49.336;8.652;2022-07-05T09:03:00;28.80;1.00
11536;DHT22;5824;49.336;8.652;2022-07-05T09:05:26;29.10;1.00
11536;DHT22;5824;49.336;8.652;2022-07-05T09:07:58;29.40;1.00
11536;DHT22;5824;49.336;8.652;2022-07-05T09:10:30;30.00;1.00
11536;DHT22;5824;49.336;8.652;2022-07-05T09:12:57;30.70;1.00
11536;DHT22;5824;49.336;8.652;2022-07-05T09:15:23;31.80;1.00
11536;DHT22;5824;49.336;8.652;2022-07-05T09:17:49;32.60;1.00
11536;DHT22;5824;49.336;8.652;2022-07-05T09:20:16;33.40;1.00
11536;DHT22;5824;49.336;8.652;2022-07-05T09:22:50;34.30;1.00
11536;DHT22;5824;49.336;8.652;2022-07-05T09:27:59;34.60;1.00
11536;DHT22;5824;49.336;8.652;2022-07-05T09:30:36;34.90;1.00
11536;DHT22;5824;49.336;8.652;2022-07-05T09:33:14;35.50;1.00
11536;DHT22;5824;49.336;8.652;2022-07-05T09:35:42;36.40;1.00
11536;DHT22;5824;49.336;8.652;2022-07-05T09:38:19;36.90;1.00
11536;DHT22;5824;49.336;8.652;2022-07-05T09:43:23;37.40;1.00
11536;DHT22;5824;49.336;8.652;2022-07-05T09:45:54;38.00;1.00
11536;DHT22;5824;49.336;8.652;2022-07-05T09:48:20;38.20;1.00
11536;DHT22;5824;49.336;8.652;2022-07-05T09:50:46;38.70;1.00
11536;DHT22;5824;49.336;8.652;2022-07-05T09:53:13;39.50;1.00
11536;DHT22;5824;49.336;8.652;2022-07-05T09:58:06;39.70;1.00
11536;DHT22;5824;49.336;8.652;2022-07-05T10:00:32;38.90;1.00
11536;DHT22;5824;49.336;8.652;2022-07-05T10:02:58;38.10;1.00
11536;DHT22;5824;49.336;8.652;2022-07-05T10:05:29;38.30;1.00
11536;DHT22;5824;49.336;8.652;2022-07-05T10:07:57;39.00;1.00
11536;DHT22;5824;49.336;8.652;2022-07-05T10:10:24;39.00;1.00
11536;DHT22;5824;49.336;8.652;2022-07-05T10:12:52;38.90;1.00
11536;DHT22;5824;49.336;8.652;2022-07-05T10:15:21;38.20;1.00
11536;DHT22;5824;49.336;8.652;2022-07-05T10:17:59;37.50;1.00
11536;DHT22;5824;49.336;8.652;2022-07-05T10:20:41;38.20;1.00
11536;DHT22;5824;49.336;8.652;2022-07-05T10:23:10;38.00;1.00
11536;DHT22;5824;49.336;8.652;2022-07-05T10:25:37;38.30;1.00
11536;DHT22;5824;49.336;8.652;2022-07-05T10:28:04;39.10;1.00
11536;DHT22;5824;49.336;8.652;2022-07-05T10:30:30;39.70;1.00
11536;DHT22;5824;49.336;8.652;2022-07-05T10:32:56;40.60;1.00
11536;DHT22;5824;49.336;8.652;2022-07-05T10:35:22;40.90;1.00
11536;DHT22;5824;49.336;8.652;2022-07-05T10:37:49;41.00;1.00
11536;DHT22;5824;49.336;8.652;2022-07-05T10:40:15;39.80;1.00
11536;DHT22;5824;49.336;8.652;2022-07-05T10:43:01;39.90;1.00
11536;DHT22;5824;49.336;8.652;2022-07-05T10:45:35;39.70;1.00
11536;DHT22;5824;49.336;8.652;2022-07-05T10:48:15;40.40;1.00
11536;DHT22;5824;49.336;8.652;2022-07-05T10:51:13;41.40;1.00
11536;DHT22;5824;49.336;8.652;2022-07-05T10:58:43;40.80;1.00
11536;DHT22;5824;49.336;8.652;2022-07-05T11:03:40;40.60;1.00
11536;DHT22;5824;49.336;8.652;2022-07-05T11:06:06;38.50;1.00
11536;DHT22;5824;49.336;8.652;2022-07-05T11:11:34;39.10;1.00
11536;DHT22;5824;49.336;8.652;2022-07-05T11:14:05;39.70;1.00
11536;DHT22;5824;49.336;8.652;2022-07-05T11:19:52;41.00;1.00
11536;DHT22;5824;49.336;8.652;2022-07-05T11:22:20;41.90;1.00
11536;DHT22;5824;49.336;8.652;2022-07-05T11:24:46;42.60;1.00
11536;DHT22;5824;49.336;8.652;2022-07-05T11:27:12;42.60;1.00
11536;DHT22;5824;49.336;8.652;2022-07-05T11:29:51;42.60;1.00
11536;DHT22;5824;49.336;8.652;2022-07-05T11:35:18;42.70;1.00
11536;DHT22;5824;49.336;8.652;2022-07-05T11:40:28;42.80;1.00
11536;DHT22;5824;49.336;8.652;2022-07-05T11:42:54;43.20;1.00
11536;DHT22;5824;49.336;8.652;2022-07-05T11:45:20;43.40;1.00
11536;DHT22;5824;49.336;8.652;2022-07-05T11:47:45;41.20;1.00
11536;DHT22;5824;49.336;8.652;2022-07-05T11:50:12;38.30;1.00
11536;DHT22;5824;49.336;8.652;2022-07-05T11:52:38;36.80;1.00
11536;DHT22;5824;49.336;8.652;2022-07-05T11:55:09;36.70;1.00
11536;DHT22;5824;49.336;8.652;2022-07-05T11:57:35;36.70;1.00
11536;DHT22;5824;49.336;8.652;2022-07-05T12:00:02;38.30;1.00
11536;DHT22;5824;49.336;8.652;2022-07-05T12:02:28;39.50;1.00
11536;DHT22;5824;49.336;8.652;2022-07-05T12:04:55;40.20;1.00
11536;DHT22;5824;49.336;8.652;2022-07-05T12:07:32;41.40;1.00
11536;DHT22;5824;49.336;8.652;2022-07-05T12:12:43;43.50;1.00
11536;DHT22;5824;49.336;8.652;2022-07-05T12:15:19;43.80;1.00
11536;DHT22;5824;49.336;8.652;2022-07-05T12:17:47;44.20;1.00
11536;DHT22;5824;49.336;8.652;2022-07-05T12:20:14;44.70;1.00
11536;DHT22;5824;49.336;8.652;2022-07-05T12:22:42;44.20;1.00
11536;DHT22;5824;49.336;8.652;2022-07-05T12:25:14;44.60;1.00
11536;DHT22;5824;49.336;8.652;2022-07-05T12:27:42;45.00;1.00
11536;DHT22;5824;49.336;8.652;2022-07-05T12:30:09;45.40;1.00
11536;DHT22;5824;49.336;8.652;2022-07-05T12:35:36;43.90;1.00
11536;DHT22;5824;49.336;8.652;2022-07-05T12:38:05;43.90;1.00
11536;DHT22;5824;49.336;8.652;2022-07-05T12:40:31;44.00;1.00
11536;DHT22;5824;49.336;8.652;2022-07-05T12:43:02;43.40;1.00
11536;DHT22;5824;49.336;8.652;2022-07-05T12:45:27;43.50;1.00
11536;DHT22;5824;49.336;8.652;2022-07-05T12:47:54;44.00;1.00
11536;DHT22;5824;49.336;8.652;2022-07-05T12:50:30;45.10;1.00
11536;DHT22;5824;49.336;8.652;2022-07-05T12:53:09;44.00;1.00
11536;DHT22;5824;49.336;8.652;2022-07-05T12:56:05;41.20;1.00
11536;DHT22;5824;49.336;8.652;2022-07-05T12:58:51;38.50;1.00
11536;DHT22;5824;49.336;8.652;2022-07-05T13:01:21;38.60;1.00
11536;DHT22;5824;49.336;8.652;2022-07-05T13:04:00;37.80;1.00
11536;DHT22;5824;49.336;8.652;2022-07-05T13:07:02;36.00;1.00
11536;DHT22;5824;49.336;8.652;2022-07-05T13:14:45;37.90;1.00
11536;DHT22;5824;49.336;8.652;2022-07-05T13:17:13;36.70;1.00
11536;DHT22;5824;49.336;8.652;2022-07-05T13:19:40;35.30;1.00
11536;DHT22;5824;49.336;8.652;2022-07-05T13:22:06;35.00;1.00
11536;DHT22;5824;49.336;8.652;2022-07-05T13:24:32;37.10;1.00
11536;DHT22;5824;49.336;8.652;2022-07-05T13:26:59;38.20;1.00
11536;DHT22;5824;49.336;8.652;2022-07-05T13:29:25;39.10;1.00
11536;DHT22;5824;49.336;8.652;2022-07-05T13:31:51;39.20;1.00
11536;DHT22;5824;49.336;8.652;2022-07-05T13:36:42;37.30;1.00
11536;DHT22;5824;49.336;8.652;2022-07-05T13:39:08;39.30;1.00
11536;DHT22;5824;49.336;8.652;2022-07-05T13:41:33;41.50;1.00
11536;DHT22;5824;49.336;8.652;2022-07-05T13:43:59;42.90;1.00
11536;DHT22;5824;49.336;8.652;2022-07-05T13:46:25;42.60;1.00
11536;DHT22;5824;49.336;8.652;2022-07-05T13:48:51;42.40;1.00
11536;DHT22;5824;49.336;8.652;2022-07-05T13:51:16;43.00;1.00
11536;DHT22;5824;49.336;8.652;2022-07-05T13:53:43;43.80;1.00
11536;DHT22;5824;49.336;8.652;2022-07-05T13:56:08;44.70;1.00
11536;DHT22;5824;49.336;8.652;2022-07-05T13:58:34;45.80;1.00
11536;DHT22;5824;49.336;8.652;2022-07-05T14:01:00;45.00;1.00
11536;DHT22;5824;49.336;8.652;2022-07-05T14:03:26;44.30;1.00
11536;DHT22;5824;49.336;8.652;2022-07-05T14:05:52;44.70;1.00
11536;DHT22;5824;49.336;8.652;2022-07-05T14:10:49;45.10;1.00
11536;DHT22;5824;49.336;8.652;2022-07-05T14:13:19;45.00;1.00
11536;DHT22;5824;49.336;8.652;2022-07-05T14:15:48;45.40;1.00
11536;DHT22;5824;49.336;8.652;2022-07-05T14:18:15;45.50;1.00
11536;DHT22;5824;49.336;8.652;2022-07-05T14:20:42;43.00;1.00
11536;DHT22;5824;49.336;8.652;2022-07-05T14:23:08;42.30;1.00
11536;DHT22;5824;49.336;8.652;2022-07-05T14:25:34;42.10;1.00
11536;DHT22;5824;49.336;8.652;2022-07-05T14:27:59;40.80;1.00
11536;DHT22;5824;49.336;8.652;2022-07-05T14:30:25;39.00;1.00
11536;DHT22;5824;49.336;8.652;2022-07-05T14:32:53;38.40;1.00
11536;DHT22;5824;49.336;8.652;2022-07-05T14:37:45;37.50;1.00
11536;DHT22;5824;49.336;8.652;2022-07-05T14:40:11;36.80;1.00
11536;DHT22;5824;49.336;8.652;2022-07-05T14:42:37;37.10;1.00
11536;DHT22;5824;49.336;8.652;2022-07-05T14:45:03;39.00;1.00
11536;DHT22;5824;49.336;8.652;2022-07-05T14:47:29;39.10;1.00
11536;DHT22;5824;49.336;8.652;2022-07-05T14:49:54;39.80;1.00
11536;DHT22;5824;49.336;8.652;2022-07-05T14:52:20;39.40;1.00
11536;DHT22;5824;49.336;8.652;2022-07-05T14:54:47;38.20;1.00
11536;DHT22;5824;49.336;8.652;2022-07-05T14:57:13;38.40;1.00
11536;DHT22;5824;49.336;8.652;2022-07-05T14:59:39;39.40;1.00
11536;DHT22;5824;49.336;8.652;2022-07-05T15:02:04;39.50;1.00
11536;DHT22;5824;49.336;8.652;2022-07-05T15:04:31;39.70;1.00
11536;DHT22;5824;49.336;8.652;2022-07-05T15:06:57;39.90;1.00
11536;DHT22;5824;49.336;8.652;2022-07-05T15:09:22;40.20;1.00
11536;DHT22;5824;49.336;8.652;2022-07-05T15:11:48;39.30;1.00
11536;DHT22;5824;49.336;8.652;2022-07-05T15:16:40;39.50;1.00
11536;DHT22;5824;49.336;8.652;2022-07-05T15:19:07;39.60;1.00
11536;DHT22;5824;49.336;8.652;2022-07-05T15:21:34;40.10;1.00
11536;DHT22;5824;49.336;8.652;2022-07-05T15:23:59;39.80;1.00
11536;DHT22;5824;49.336;8.652;2022-07-05T15:26:27;39.20;1.00
11536;DHT22;5824;49.336;8.652;2022-07-05T15:29:08;38.10;1.00
11536;DHT22;5824;49.336;8.652;2022-07-05T15:31:35;36.50;1.00
11536;DHT22;5824;49.336;8.652;2022-07-05T15:34:04;36.00;1.00
11536;DHT22;5824;49.336;8.652;2022-07-05T15:36:31;36.00;1.00
11536;DHT22;5824;49.336;8.652;2022-07-05T15:39:02;35.90;1.00
11536;DHT22;5824;49.336;8.652;2022-07-05T15:41:29;36.40;1.00
11536;DHT22;5824;49.336;8.652;2022-07-05T15:43:55;37.00;1.00
11536;DHT22;5824;49.336;8.652;2022-07-05T15:46:21;37.10;1.00
11536;DHT22;5824;49.336;8.652;2022-07-05T15:48:47;36.60;1.00
11536;DHT22;5824;49.336;8.652;2022-07-05T15:51:18;35.40;1.00
11536;DHT22;5824;49.336;8.652;2022-07-05T15:53:44;35.00;1.00
11536;DHT22;5824;49.336;8.652;2022-07-05T15:56:10;35.10;1.00
11536;DHT22;5824;49.336;8.652;2022-07-05T15:58:35;35.00;1.00
11536;DHT22;5824;49.336;8.652;2022-07-05T16:01:03;35.30;1.00
11536;DHT22;5824;49.336;8.652;2022-07-05T16:03:29;35.30;1.00
11536;DHT22;5824;49.336;8.652;2022-07-05T16:05:56;35.00;1.00
11536;DHT22;5824;49.336;8.652;2022-07-05T16:08:28;35.10;1.00
11536;DHT22;5824;49.336;8.652;2022-07-05T16:10:54;34.90;1.00
11536;DHT22;5824;49.336;8.652;2022-07-05T16:13:21;34.20;1.00
11536;DHT22;5824;49.336;8.652;2022-07-05T16:15:47;33.80;1.00
11536;DHT22;5824;49.336;8.652;2022-07-05T16:18:31;33.60;1.00
11536;DHT22;5824;49.336;8.652;2022-07-05T16:21:03;33.00;1.00
11536;DHT22;5824;49.336;8.652;2022-07-05T16:23:33;32.40;1.00
11536;DHT22;5824;49.336;8.652;2022-07-05T16:25:59;31.90;1.00
11536;DHT22;5824;49.336;8.652;2022-07-05T16:28:27;31.60;1.00
11536;DHT22;5824;49.336;8.652;2022-07-05T16:30:53;31.00;1.00
11536;DHT22;5824;49.336;8.652;2022-07-05T16:33:18;30.80;1.00
11536;DHT22;5824;49.336;8.652;2022-07-05T16:35:44;31.00;1.00
11536;DHT22;5824;49.336;8.652;2022-07-05T16:38:09;31.00;1.00
11536;DHT22;5824;49.336;8.652;2022-07-05T16:40:35;30.80;1.00
11536;DHT22;5824;49.336;8.652;2022-07-05T16:43:00;30.90;1.00
11536;DHT22;5824;49.336;8.652;2022-07-05T16:45:26;30.90;1.00
11536;DHT22;5824;49.336;8.652;2022-07-05T16:47:52;30.90;1.00
11536;DHT22;5824;49.336;8.652;2022-07-05T16:50:17;30.70;1.00